Weather History for Little Rock AFB, AR

Change the Weather History Date:

Wednesday, October 16, 2013

  Actual Average Record
Temperature  
Mean Temperature 59 °F -  
Max Temperature 65 °F 74 °F 89 °F (1999)
Min Temperature 54 °F 51 °F 35 °F (1966)
Degree Days  
Heating Degree Days 6    
Growing Degree Days 9 (Base 50)    
Moisture  
Dew Point 55 °F    
Average Humidity 89    
Maximum Humidity 100    
Minimum Humidity 69    
Precipitation  
Precipitation 0.17 in - - ()
Sea Level Pressure  
Sea Level Pressure 30.02 in    
Wind  
Wind Speed 5 mph (NW)    
Max Wind Speed 12 mph    
Max Gust Speed 17 mph    
Visibility 10 miles    
Events Rain    
Averages and records for this station are not official NWS values.
T = Trace of Precipitation, MM = Missing Value Source: NWS Daily Summary

Daily Weather History Graph

Daily Weather History Graph

Search for Another Location

Airport:

Trip Planner

Search our weather history database for the weather conditions in past years. The results will help you decide how hot, cold, wet, or windy it might be!

Date:

Astronomy

Oct. 16, 2013 Rise Set
Actual Time 7:15 AM CDT 6:32 PM CDT
Civil Twilight 6:49 AM CDT 6:57 PM CDT
Nautical Twilight 6:20 AM CDT 7:26 PM CDT
Astronomical Twilight 5:51 AM CDT 7:56 PM CDT
Moon 5:08 PM CDT (10/16) 4:48 AM CDT (10/16)
Length of Visible Light 12h 07m
Length of Day
11h 16m
Waxing Gibbous, 94% of the Moon is Illuminated
Oct 16
Waxing Gibbous
Oct 18
Full
Oct 26
Last Quarter
Nov 3
New
Nov 9
First Quarter

Hourly Weather History & Observations

Time (CDT) Temp. Dew Point Humidity Pressure Visibility Wind Dir Wind Speed Gust Speed Precip Events Conditions
12:25 AM 64.4 °F 64.4 °F 100% 29.98 in 10.0 mi West 2.3 mph - N/A   Light Drizzle
12:58 AM 64.6 °F 64.2 °F 99% 30.01 in 10.0 mi WNW 5.8 mph - 0.00 in   Light Drizzle
1:07 AM 64.4 °F 64.4 °F 100% 30.01 in 10.0 mi West 4.6 mph - N/A   Light Drizzle
1:22 AM 64.4 °F 64.4 °F 100% 30.01 in 10.0 mi WNW 2.3 mph - N/A   Light Drizzle
1:27 AM 64.4 °F 64.4 °F 100% 30.00 in 10.0 mi NNW 2.3 mph - N/A Rain Light Rain
1:57 AM 64.4 °F 64.4 °F 100% 29.99 in 10.0 mi NW 5.8 mph - N/A Rain Light Rain
1:58 AM 64.9 °F 64.8 °F 99% 30.00 in 10.0 mi NW 5.8 mph - 0.01 in Rain Light Rain
2:33 AM 64.4 °F 64.4 °F 100% 29.99 in 10.0 mi NNW 10.4 mph - N/A Rain Light Rain
2:53 AM 62.6 °F 62.6 °F 100% 30.00 in 10.0 mi NNW 11.5 mph 17.3 mph N/A Rain Light Rain
2:58 AM 62.6 °F 61.5 °F 96% 30.01 in 10.0 mi NNW 11.5 mph 17.3 mph 0.02 in Rain Rain
3:13 AM 59.0 °F 57.2 °F 94% 30.00 in 10.0 mi NW 9.2 mph - N/A Rain Light Rain
3:18 AM 59.0 °F 57.2 °F 94% 30.00 in 10.0 mi NNW 8.1 mph - N/A Rain Light Rain
3:28 AM 59.0 °F 57.2 °F 94% 30.00 in 10.0 mi NNW 5.8 mph - N/A Rain Light Rain
3:38 AM 59.0 °F 57.2 °F 94% 30.00 in 10.0 mi NNW 6.9 mph - N/A Rain Light Rain
3:43 AM 57.2 °F 57.2 °F 100% 29.99 in 10.0 mi NNW 6.9 mph - N/A Rain Light Rain
3:53 AM 57.2 °F 55.4 °F 94% 29.99 in 10.0 mi Variable 6.9 mph - N/A Rain Light Rain
3:58 AM 57.7 °F 56.3 °F 95% 30.00 in 10.0 mi NNW 5.8 mph - 0.04 in Rain Light Rain
4:08 AM 57.2 °F 55.4 °F 94% 29.98 in 10.0 mi NNW 5.8 mph - N/A Rain Light Rain
4:13 AM 57.2 °F 55.4 °F 94% 29.98 in 10.0 mi North 5.8 mph - N/A Rain Light Rain
4:18 AM 57.2 °F 55.4 °F 94% 29.98 in 9.0 mi Variable 4.6 mph - N/A Rain Light Rain
4:38 AM 57.2 °F 55.4 °F 94% 29.98 in 10.0 mi North 6.9 mph - N/A Rain Light Rain
4:58 AM 56.3 °F 54.9 °F 95% 30.00 in 10.0 mi NNW 6.9 mph - 0.05 in Rain Light Rain
5:33 AM 55.4 °F 53.6 °F 94% 30.01 in 10.0 mi North 9.2 mph - N/A Rain Light Rain
5:38 AM 55.4 °F 53.6 °F 94% 30.01 in 10.0 mi Variable 5.8 mph - N/A   Light Drizzle
5:53 AM 55.4 °F 51.8 °F 88% 30.01 in 10.0 mi North 8.1 mph - N/A Rain Light Rain
5:58 AM 54.9 °F 52.0 °F 90% 30.03 in 10.0 mi North 5.8 mph - 0.02 in Rain Light Rain
6:58 AM 54.7 °F 52.7 °F 93% 30.04 in 10.0 mi North 2.3 mph - 0.02 in Rain Light Rain
7:13 AM 55.4 °F 53.6 °F 94% 30.03 in 10.0 mi NNW 1.2 mph - N/A Rain Light Rain
7:36 AM 55.4 °F 53.6 °F 94% 30.04 in 10.0 mi WNW 1.2 mph - N/A   Overcast
7:39 AM 55.4 °F 53.6 °F 94% 30.05 in 10.0 mi NW 2.3 mph - N/A   Light Drizzle
7:40 AM 55.4 °F 53.6 °F 94% 30.05 in 10.0 mi NW 2.3 mph - N/A   Overcast
7:43 AM 55.4 °F 53.6 °F 94% 30.05 in 10.0 mi WNW 2.3 mph - N/A   Light Drizzle
7:58 AM 54.9 °F 53.2 °F 94% 30.07 in 10.0 mi NW 4.6 mph - 0.00 in Rain Light Rain
8:58 AM 55.0 °F 53.4 °F 94% 30.08 in 10.0 mi NW 2.3 mph - 0.01 in   Light Drizzle
8:59 AM 55.4 °F 53.6 °F 94% 30.07 in 10.0 mi NW 2.3 mph - N/A   Overcast
9:41 AM 55.4 °F 53.6 °F 94% 30.06 in 10.0 mi Variable 3.5 mph - N/A   Light Drizzle
9:50 AM 55.4 °F 53.6 °F 94% 30.06 in 10.0 mi NNW 5.8 mph - N/A   Mostly Cloudy
9:58 AM 56.1 °F 53.6 °F 91% 30.07 in 10.0 mi Variable 3.5 mph - 0.00 in   Mostly Cloudy
10:08 AM 55.4 °F 53.6 °F 94% 30.06 in 10.0 mi North 5.8 mph - N/A   Mostly Cloudy
10:09 AM 55.4 °F 53.6 °F 94% 30.06 in 10.0 mi Variable 6.9 mph - N/A   Light Drizzle
10:21 AM 55.4 °F 53.6 °F 94% 30.07 in 10.0 mi NNW 5.8 mph - N/A   Overcast
10:26 AM 55.4 °F 53.6 °F 94% 30.07 in 10.0 mi NW 4.6 mph - N/A   Light Drizzle
10:36 AM 55.4 °F 53.6 °F 94% 30.08 in 10.0 mi NW 4.6 mph - N/A   Overcast
10:56 AM 55.4 °F 53.6 °F 94% 30.06 in 10.0 mi NNW 4.6 mph - N/A   Overcast
11:53 AM 57.2 °F 51.8 °F 82% 30.07 in 10.0 mi Variable 5.8 mph - N/A   Overcast
11:58 AM 57.0 °F 51.6 °F 82% 30.08 in 10.0 mi North 4.6 mph - N/A   Overcast
12:13 PM 57.2 °F 51.8 °F 82% 30.07 in 10.0 mi NW 6.9 mph - N/A   Overcast
12:43 PM 57.2 °F 51.8 °F 82% 30.06 in 10.0 mi NNW 6.9 mph - N/A   Overcast
12:48 PM 59.0 °F 51.8 °F 77% 30.06 in 10.0 mi North 4.6 mph - N/A   Overcast
12:58 PM 58.8 °F 51.4 °F 76% 30.06 in 10.0 mi NNW 5.8 mph - N/A   Overcast
1:58 PM 60.3 °F 51.3 °F 72% 30.03 in 10.0 mi North 5.8 mph - N/A   Overcast
2:43 PM 60.8 °F 51.8 °F 72% 30.00 in 10.0 mi NNE 2.3 mph - N/A   Overcast
2:58 PM 60.8 °F 51.8 °F 72% 30.01 in 10.0 mi NNW 2.3 mph - N/A   Overcast
3:03 PM 60.8 °F 51.8 °F 72% 30.00 in 10.0 mi NNW 4.6 mph - N/A   Overcast
3:08 PM 60.8 °F 51.8 °F 72% 30.00 in 10.0 mi WNW 4.6 mph - N/A   Overcast
3:58 PM 61.0 °F 50.9 °F 69% 30.01 in 10.0 mi West 1.2 mph - N/A   Overcast
4:58 PM 61.5 °F 51.6 °F 70% 30.00 in 10.0 mi Calm Calm - N/A   Overcast
5:58 PM 61.5 °F 51.8 °F 70% 29.99 in 10.0 mi NNW 2.3 mph - N/A   Overcast
6:58 PM 60.6 °F 52.7 °F 75% 30.00 in 10.0 mi NW 2.3 mph - N/A   Overcast
7:58 PM 59.4 °F 52.9 °F 79% 30.02 in 10.0 mi NNW 1.2 mph - N/A   Overcast
8:58 PM 59.5 °F 54.1 °F 82% 30.02 in 10.0 mi Calm Calm - N/A   Overcast
9:58 PM 59.4 °F 52.5 °F 78% 30.03 in 10.0 mi West 3.5 mph - N/A   Overcast
10:58 PM 59.0 °F 53.8 °F 83% 30.02 in 10.0 mi West 4.6 mph - N/A   Overcast
11:58 PM 58.8 °F 54.1 °F 84% 30.02 in 10.0 mi West 5.8 mph - N/A   Overcast